Time;durP1;ratioP1;P1;durP2;ratioP2;P2;SDS_P1;SDS_P2;PMS_P1;PMS_P2;Temp;Humidity;BMP_temperature;BMP_pressure;BME280_temperature;BME280_humidity;BME280_pressure;Samples;Min_cycle;Max_cycle;Signal;HPM_P1;HPM_P2
2022/07/07 00:00:55;;;;;;;1.97;1.77;;;24.60;57.70;;;;;;6214540;23;20399;-71
2022/07/07 00:03:23;;;;;;;2.17;2.07;;;24.60;58.30;;;;;;6212338;23;20867;-71
2022/07/07 00:05:49;;;;;;;1.97;1.77;;;24.60;57.80;;;;;;6214769;23;20390;-71
2022/07/07 00:08:16;;;;;;;2.00;1.60;;;24.60;57.90;;;;;;6212730;23;20790;-71
2022/07/07 00:10:44;;;;;;;2.63;1.90;;;24.60;57.90;;;;;;6213435;23;20360;-71
2022/07/07 00:13:12;;;;;;;2.27;2.07;;;24.60;57.90;;;;;;6214611;23;20391;-71
2022/07/07 00:15:45;;;;;;;3.30;2.30;;;24.60;57.90;;;;;;6212393;23;20387;-71
2022/07/07 00:18:17;;;;;;;2.50;2.30;;;24.60;58.00;;;;;;6214200;23;20387;-71
2022/07/07 00:20:44;;;;;;;2.90;2.00;;;24.60;58.00;;;;;;6213123;23;20770;-71
2022/07/07 00:23:09;;;;;;;3.40;2.13;;;24.60;58.10;;;;;;6213009;23;20399;-71
2022/07/07 00:25:36;;;;;;;2.90;1.70;;;24.50;58.10;;;;;;6212829;23;20383;-71
2022/07/07 00:28:04;;;;;;;1.83;1.70;;;24.50;58.10;;;;;;6212624;23;20407;-71
2022/07/07 00:30:33;;;;;;;5.00;2.33;;;24.50;58.10;;;;;;6214481;23;21041;-71
2022/07/07 00:32:59;;;;;;;2.30;2.03;;;24.50;58.20;;;;;;6211989;23;20379;-71
2022/07/07 00:35:25;;;;;;;2.40;1.87;;;24.50;58.30;;;;;;6213166;23;20367;-71
2022/07/07 00:37:53;;;;;;;4.27;1.80;;;24.50;58.30;;;;;;6212212;23;20747;-71
2022/07/07 00:40:19;;;;;;;2.00;1.80;;;24.50;58.30;;;;;;6212729;23;20421;-71
2022/07/07 00:42:48;;;;;;;2.93;2.40;;;24.50;58.40;;;;;;6212880;23;20368;-71
2022/07/07 00:45:17;;;;;;;3.20;2.10;;;24.50;58.40;;;;;;6214090;23;20388;-71
2022/07/07 00:47:47;;;;;;;3.60;1.90;;;24.50;58.50;;;;;;6212821;23;20411;-71
2022/07/07 00:50:19;;;;;;;3.30;2.13;;;24.50;58.50;;;;;;6187971;23;20458;-71
2022/07/07 00:52:46;;;;;;;2.53;2.17;;;24.50;58.60;;;;;;6212740;23;20414;-71
2022/07/07 00:55:14;;;;;;;2.53;2.30;;;24.40;58.60;;;;;;6212827;23;20383;-71
2022/07/07 00:57:42;;;;;;;2.20;2.00;;;24.40;58.70;;;;;;6214318;23;20375;-71
2022/07/07 01:00:14;;;;;;;2.77;2.00;;;24.40;58.60;;;;;;6213237;23;20407;-71
2022/07/07 01:02:44;;;;;;;3.90;2.40;;;24.40;58.70;;;;;;6212598;23;20390;-71
2022/07/07 01:05:13;;;;;;;3.30;2.40;;;24.40;58.80;;;;;;6212713;23;20403;-71
2022/07/07 01:07:39;;;;;;;2.83;2.17;;;24.40;58.80;;;;;;6213882;23;20692;-71
2022/07/07 01:10:08;;;;;;;2.50;2.10;;;24.40;58.80;;;;;;6212207;23;20430;-71
2022/07/07 01:12:39;;;;;;;3.80;2.30;;;24.40;58.90;;;;;;6212445;23;20384;-71
2022/07/07 01:15:07;;;;;;;2.80;2.60;;;24.40;58.90;;;;;;6213954;23;20367;-71
2022/07/07 01:17:41;;;;;;;2.60;2.20;;;24.40;58.90;;;;;;6214053;23;20406;-71
2022/07/07 01:20:10;;;;;;;2.63;2.43;;;24.40;58.90;;;;;;6212409;23;20413;-71
2022/07/07 01:22:52;;;;;;;2.67;2.43;;;24.40;58.90;;;;;;6214299;23;20865;-71
2022/07/07 01:25:19;;;;;;;5.90;2.40;;;24.40;58.90;;;;;;6212519;23;20378;-71
2022/07/07 01:27:50;;;;;;;2.40;2.20;;;24.30;59.00;;;;;;6212356;23;20423;-71
2022/07/07 01:30:17;;;;;;;3.27;2.30;;;24.30;59.00;;;;;;6211962;23;20502;-71
2022/07/07 01:32:46;;;;;;;2.83;2.20;;;24.30;59.10;;;;;;6213296;23;20372;-72
2022/07/07 01:35:19;;;;;;;2.40;2.07;;;24.30;59.20;;;;;;6212350;23;20489;-71
2022/07/07 01:37:47;;;;;;;2.30;2.10;;;24.30;59.30;;;;;;6187885;23;20711;-71
2022/07/07 01:40:13;;;;;;;5.23;2.40;;;24.30;59.40;;;;;;6212445;23;20406;-71
2022/07/07 01:42:41;;;;;;;4.60;2.37;;;24.30;59.40;;;;;;6212747;23;21037;-71
2022/07/07 01:45:10;;;;;;;2.63;2.20;;;24.30;59.40;;;;;;6213623;23;20376;-71
2022/07/07 01:47:36;;;;;;;2.57;2.20;;;24.30;59.50;;;;;;6212477;23;20438;-71
2022/07/07 01:50:05;;;;;;;4.70;2.30;;;24.20;59.40;;;;;;6209887;23;20415;-71
2022/07/07 01:52:31;;;;;;;3.20;2.30;;;24.20;59.50;;;;;;6211950;23;20436;-71
2022/07/07 01:54:59;;;;;;;2.27;2.07;;;24.20;59.60;;;;;;6210078;23;20371;-71
2022/07/07 01:57:25;;;;;;;2.53;2.30;;;24.20;59.60;;;;;;6209928;23;20398;-71
2022/07/07 01:59:56;;;;;;;2.43;2.23;;;24.20;59.60;;;;;;6211365;23;20179;-71
2022/07/07 02:02:26;;;;;;;3.13;2.20;;;24.20;59.60;;;;;;6210035;23;20367;-71
2022/07/07 02:04:55;;;;;;;4.30;2.47;;;24.20;59.60;;;;;;6213070;23;20374;-71
2022/07/07 02:07:21;;;;;;;1.63;1.53;;;24.20;59.70;;;;;;6212273;23;20356;-71
2022/07/07 02:09:47;;;;;;;2.30;2.10;;;24.20;59.80;;;;;;6211804;23;20439;-71
2022/07/07 02:12:13;;;;;;;2.17;2.07;;;24.20;59.80;;;;;;6212216;23;20387;-71
2022/07/07 02:14:43;;;;;;;4.50;2.33;;;24.20;59.90;;;;;;6213486;23;20132;-71
2022/07/07 02:17:12;;;;;;;3.53;2.37;;;24.20;60.00;;;;;;6213553;23;20446;-71
2022/07/07 02:19:38;;;;;;;2.60;2.40;;;24.20;60.20;;;;;;6211915;23;20493;-71
2022/07/07 02:22:08;;;;;;;2.37;2.17;;;24.20;60.30;;;;;;6212517;23;20388;-71
2022/07/07 02:24:34;;;;;;;2.53;2.27;;;24.10;60.50;;;;;;6211699;23;20384;-71
2022/07/07 02:27:00;;;;;;;2.67;2.30;;;24.10;60.80;;;;;;6187052;23;20379;-71
2022/07/07 02:29:26;;;;;;;5.13;2.10;;;24.10;61.10;;;;;;6213480;23;20430;-71
2022/07/07 02:31:55;;;;;;;2.67;2.20;;;24.10;61.40;;;;;;6213688;23;20408;-71
2022/07/07 02:34:21;;;;;;;1.70;1.60;;;24.10;61.60;;;;;;6212219;23;20900;-71
2022/07/07 02:36:47;;;;;;;3.10;2.20;;;24.10;61.80;;;;;;6212101;23;20386;-71
2022/07/07 02:39:15;;;;;;;2.50;2.30;;;24.10;61.80;;;;;;6211973;23;20411;-71
2022/07/07 02:41:43;;;;;;;2.20;2.00;;;24.10;61.90;;;;;;6213256;23;20141;-71
2022/07/07 02:44:10;;;;;;;4.03;2.63;;;24.10;62.10;;;;;;6215739;23;20383;-71
2022/07/07 02:46:35;;;;;;;4.27;2.33;;;24.10;62.10;;;;;;6189135;23;20422;-71
2022/07/07 02:49:04;;;;;;;5.00;2.77;;;24.10;62.20;;;;;;6214978;23;20422;-71
2022/07/07 02:51:30;;;;;;;2.40;2.20;;;24.00;62.00;;;;;;6213830;23;20394;-71
2022/07/07 02:54:01;;;;;;;3.10;2.00;;;24.00;62.30;;;;;;6215391;23;20375;-71
2022/07/07 02:56:27;;;;;;;2.83;2.33;;;24.00;62.60;;;;;;6214004;23;20672;-71
2022/07/07 02:58:57;;;;;;;3.13;2.30;;;24.00;62.90;;;;;;6213956;23;20419;-71
2022/07/07 03:01:26;;;;;;;2.17;2.07;;;24.00;63.00;;;;;;6215438;23;20387;-71
2022/07/07 03:03:52;;;;;;;2.10;1.90;;;24.00;63.00;;;;;;6189109;23;20406;-71
2022/07/07 03:06:20;;;;;;;3.27;1.90;;;23.90;62.80;;;;;;6213460;23;20364;-71
2022/07/07 03:08:48;;;;;;;3.40;1.97;;;23.90;62.70;;;;;;6213512;23;20521;-71
2022/07/07 03:11:19;;;;;;;2.70;2.07;;;23.90;62.60;;;;;;6215629;23;20383;-71
2022/07/07 03:13:45;;;;;;;2.50;1.90;;;23.90;62.60;;;;;;6188918;23;20446;-71
2022/07/07 03:16:16;;;;;;;2.07;1.87;;;23.90;62.70;;;;;;6215281;23;20363;-71
2022/07/07 03:18:42;;;;;;;2.13;1.87;;;23.90;62.70;;;;;;6213486;23;20440;-71
2022/07/07 03:21:08;;;;;;;2.53;2.13;;;23.90;63.10;;;;;;6188691;23;20508;-71
2022/07/07 03:23:34;;;;;;;2.63;2.00;;;23.90;63.10;;;;;;6214195;23;20371;-71
2022/07/07 03:26:00;;;;;;;2.03;1.83;;;23.90;63.10;;;;;;6215325;23;20391;-71
2022/07/07 03:28:27;;;;;;;4.07;1.90;;;23.90;63.10;;;;;;6213417;23;20434;-71
2022/07/07 03:30:56;;;;;;;2.93;2.40;;;23.90;63.00;;;;;;6213781;23;20433;-71
2022/07/07 03:33:24;;;;;;;2.03;1.80;;;23.90;63.10;;;;;;6215109;23;20418;-71
2022/07/07 03:35:50;;;;;;;2.43;1.87;;;23.90;62.90;;;;;;6213366;23;20391;-71
2022/07/07 03:38:18;;;;;;;2.70;2.13;;;23.90;63.00;;;;;;6213586;23;20874;-71
2022/07/07 03:40:46;;;;;;;3.73;2.00;;;23.80;62.90;;;;;;6213854;23;20359;-71
2022/07/07 03:43:15;;;;;;;3.10;1.70;;;23.80;62.80;;;;;;6213500;23;20366;-71
2022/07/07 03:45:40;;;;;;;2.67;2.10;;;23.80;62.80;;;;;;6213615;23;20430;-71
2022/07/07 03:48:09;;;;;;;2.10;1.90;;;23.80;63.00;;;;;;6213109;23;20415;-71
2022/07/07 03:50:35;;;;;;;2.93;2.30;;;23.80;63.10;;;;;;6213782;23;20365;-71
2022/07/07 03:53:01;;;;;;;2.50;1.93;;;23.80;63.30;;;;;;6212646;23;20384;-71
2022/07/07 03:55:29;;;;;;;3.40;2.07;;;23.80;64.30;;;;;;6213574;23;20370;-71
2022/07/07 03:57:55;;;;;;;2.40;2.20;;;23.80;63.70;;;;;;6188494;23;20360;-71
2022/07/07 04:00:24;;;;;;;2.57;1.90;;;23.80;64.10;;;;;;6214871;23;20395;-71
2022/07/07 04:02:50;;;;;;;2.50;2.30;;;23.80;64.00;;;;;;6213125;23;20411;-71
2022/07/07 04:05:18;;;;;;;2.33;2.13;;;23.80;64.10;;;;;;6213860;23;20399;-71
2022/07/07 04:07:52;;;;;;;2.73;2.00;;;23.80;64.30;;;;;;6213089;23;20372;-71
2022/07/07 04:10:18;;;;;;;2.80;2.30;;;23.80;64.50;;;;;;6214916;23;20437;-71
2022/07/07 04:12:44;;;;;;;3.30;2.50;;;23.80;64.50;;;;;;6213196;23;20360;-71
2022/07/07 04:15:10;;;;;;;2.23;2.00;;;23.70;65.00;;;;;;6213450;23;20375;-71
2022/07/07 04:17:36;;;;;;;2.10;2.00;;;23.70;65.00;;;;;;6214715;23;20815;-71
2022/07/07 04:20:04;;;;;;;2.20;2.00;;;23.70;64.80;;;;;;6213430;23;20414;-71
2022/07/07 04:22:32;;;;;;;2.30;2.03;;;23.70;65.00;;;;;;6213409;23;20412;-71
2022/07/07 04:25:00;;;;;;;2.27;2.00;;;23.70;65.20;;;;;;6213338;23;20398;-71
2022/07/07 04:27:26;;;;;;;5.13;2.90;;;23.70;65.50;;;;;;6213951;23;20391;-71
2022/07/07 04:29:54;;;;;;;3.23;2.23;;;23.70;65.40;;;;;;6212946;23;20435;-71
2022/07/07 04:32:23;;;;;;;3.43;2.13;;;23.70;65.50;;;;;;6214750;23;20783;-71
2022/07/07 04:34:49;;;;;;;3.50;2.53;;;23.70;65.60;;;;;;6214789;23;20846;-71
2022/07/07 04:37:15;;;;;;;2.33;2.00;;;23.60;65.50;;;;;;6213119;23;20433;-71
2022/07/07 04:39:41;;;;;;;3.43;2.20;;;23.60;65.50;;;;;;6213170;23;20886;-72
2022/07/07 04:42:10;;;;;;;2.60;2.40;;;23.60;65.50;;;;;;6214297;23;20366;-70
2022/07/07 04:44:38;;;;;;;2.77;2.57;;;23.60;65.50;;;;;;6214729;23;20438;-71
2022/07/07 04:47:04;;;;;;;3.13;2.10;;;23.60;65.40;;;;;;6211971;23;20387;-71
2022/07/07 04:49:31;;;;;;;2.17;1.97;;;23.60;65.50;;;;;;6212530;23;20442;-73
2022/07/07 04:51:57;;;;;;;4.00;3.23;;;23.60;65.80;;;;;;6212987;23;20723;-71
2022/07/07 04:54:28;;;;;;;3.30;2.37;;;23.60;65.90;;;;;;6214520;23;20361;-70
2022/07/07 04:56:56;;;;;;;2.57;2.37;;;23.60;65.90;;;;;;6212555;23;20471;-70
2022/07/07 04:59:24;;;;;;;1.93;1.80;;;23.60;66.10;;;;;;6212505;23;20415;-71
2022/07/07 05:01:50;;;;;;;2.03;1.83;;;23.60;65.90;;;;;;6212881;23;20391;-71
2022/07/07 05:04:19;;;;;;;3.10;2.27;;;23.50;65.90;;;;;;6212918;23;20894;-71
2022/07/07 05:06:50;;;;;;;2.50;2.30;;;23.50;65.70;;;;;;6212871;23;20402;-71
2022/07/07 05:09:16;;;;;;;4.30;2.33;;;23.50;66.00;;;;;;6213858;23;20510;-70
2022/07/07 05:11:44;;;;;;;3.60;2.30;;;23.50;65.90;;;;;;6213891;23;20368;-71
2022/07/07 05:14:10;;;;;;;2.43;2.23;;;23.50;66.80;;;;;;6187575;23;20384;-71
2022/07/07 05:19:26;;;;;;;2.27;1.90;;;23.50;67.90;;;;;;6203920;23;20438;-77
2022/07/07 05:21:53;;;;;;;2.60;2.00;;;23.50;68.80;;;;;;6216948;23;20399;-77
2022/07/07 05:24:20;;;;;;;2.60;2.37;;;23.50;69.20;;;;;;6191820;23;20388;-77
2022/07/07 05:26:46;;;;;;;2.33;2.13;;;23.50;69.30;;;;;;6217477;23;20841;-77
2022/07/07 05:29:12;;;;;;;2.23;1.90;;;23.50;69.50;;;;;;6165133;23;20439;-76
2022/07/07 05:31:38;;;;;;;2.23;2.00;;;23.50;69.60;;;;;;6215185;23;20378;-76
2022/07/07 05:34:04;;;;;;;1.90;1.70;;;23.50;69.10;;;;;;6188711;23;20475;-77
2022/07/07 05:36:33;;;;;;;2.70;1.90;;;23.40;69.20;;;;;;6190298;23;20383;-76
2022/07/07 05:39:02;;;;;;;1.80;1.67;;;23.40;68.50;;;;;;6216026;23;20474;-77
2022/07/07 05:41:29;;;;;;;2.10;1.90;;;23.40;68.60;;;;;;6189142;23;20457;-76
2022/07/07 05:43:57;;;;;;;1.80;1.57;;;23.40;68.60;;;;;;6188899;23;20363;-77
2022/07/07 05:46:23;;;;;;;1.87;1.77;;;23.40;69.30;;;;;;6163853;23;20458;-75
2022/07/07 05:48:49;;;;;;;2.17;1.70;;;23.40;68.80;;;;;;6162968;23;20441;-77
2022/07/07 05:51:15;;;;;;;3.60;2.13;;;23.40;69.70;;;;;;6214354;23;20878;-76
2022/07/07 05:53:41;;;;;;;2.03;1.70;;;23.40;69.50;;;;;;6164619;23;20156;-77
2022/07/07 05:56:10;;;;;;;1.67;1.57;;;23.40;69.20;;;;;;6189303;23;20363;-76
2022/07/07 05:58:39;;;;;;;1.50;1.30;;;23.40;69.50;;;;;;6139667;23;20555;-75
2022/07/07 06:01:05;;;;;;;2.73;1.60;;;23.30;69.10;;;;;;6212493;23;21107;-74
2022/07/07 06:03:31;;;;;;;2.60;1.50;;;23.30;69.30;;;;;;6187863;23;20186;-75
2022/07/07 06:05:59;;;;;;;4.00;2.00;;;23.30;69.20;;;;;;6214726;23;20379;-75
2022/07/07 06:08:30;;;;;;;2.33;1.60;;;23.30;70.20;;;;;;6188661;23;20435;-74
2022/07/07 06:10:56;;;;;;;2.60;1.70;;;23.30;70.80;;;;;;6188566;23;20716;-74
2022/07/07 06:13:22;;;;;;;2.13;1.80;;;23.30;70.70;;;;;;6163509;23;20382;-74
2022/07/07 06:15:48;;;;;;;2.00;1.70;;;23.30;71.10;;;;;;6213049;23;20390;-74
2022/07/07 06:18:14;;;;;;;1.63;1.47;;;23.30;71.50;;;;;;6214578;23;20470;-75
2022/07/07 06:20:40;;;;;;;1.87;1.73;;;23.30;71.30;;;;;;6215023;23;20385;-74
2022/07/07 06:23:07;;;;;;;3.10;1.60;;;23.30;71.40;;;;;;6188795;23;20136;-74
2022/07/07 06:25:33;;;;;;;2.17;1.80;;;23.30;72.40;;;;;;6214096;23;20426;-74
2022/07/07 06:27:59;;;;;;;1.93;1.77;;;23.30;72.10;;;;;;6138937;23;20477;-74
2022/07/07 06:30:30;;;;;;;1.80;1.40;;;23.30;71.90;;;;;;6188432;23;20403;-75
2022/07/07 06:32:56;;;;;;;2.83;1.50;;;23.30;72.00;;;;;;6163519;23;20420;-75
2022/07/07 06:35:27;;;;;;;1.50;1.40;;;23.30;71.70;;;;;;6213713;23;20394;-75
2022/07/07 06:37:53;;;;;;;1.63;1.53;;;23.30;71.80;;;;;;6187860;23;20379;-75
2022/07/07 06:40:20;;;;;;;1.50;1.40;;;23.20;72.20;;;;;;6188152;23;20418;-75
2022/07/07 06:42:46;;;;;;;1.80;1.40;;;23.20;72.00;;;;;;6138888;23;20387;-74
2022/07/07 06:45:20;;;;;;;1.87;1.30;;;23.20;72.50;;;;;;6165375;23;20450;-75
2022/07/07 06:48:25;;;;;;;1.80;1.70;;;23.20;72.70;;;;;;6090785;23;20524;-75
2022/07/07 06:50:51;;;;;;;1.53;1.30;;;23.20;73.70;;;;;;6092923;23;20421;-75
2022/07/07 06:53:19;;;;;;;1.77;1.40;;;23.20;73.70;;;;;;6093316;23;20367;-75
2022/07/07 06:55:45;;;;;;;1.40;1.30;;;23.20;73.50;;;;;;6092933;23;20407;-74
2022/07/07 06:58:13;;;;;;;1.40;1.20;;;23.20;73.20;;;;;;6068962;23;20403;-75
2022/07/07 07:00:41;;;;;;;2.00;1.57;;;23.20;73.10;;;;;;6042625;23;20176;-75
2022/07/07 07:03:09;;;;;;;2.73;1.57;;;23.20;73.00;;;;;;6069217;23;20535;-75
2022/07/07 07:05:35;;;;;;;1.50;1.40;;;23.20;73.20;;;;;;6092886;23;20467;-75
2022/07/07 07:08:02;;;;;;;1.70;1.60;;;23.20;73.00;;;;;;6093043;23;20430;-75
2022/07/07 07:10:27;;;;;;;1.87;1.47;;;23.20;72.80;;;;;;6093085;23;20418;-75
2022/07/07 07:12:53;;;;;;;1.50;1.40;;;23.20;72.60;;;;;;6093422;23;20383;-75
2022/07/07 07:15:26;;;;;;;1.53;1.43;;;23.20;73.00;;;;;;6093358;23;20947;-75
2022/07/07 07:17:52;;;;;;;2.60;1.50;;;23.20;73.00;;;;;;6093075;23;20401;-75
2022/07/07 07:20:18;;;;;;;2.63;1.57;;;23.10;72.80;;;;;;6039919;23;20810;-75
2022/07/07 07:22:44;;;;;;;1.60;1.50;;;23.20;73.10;;;;;;6171176;23;20379;-75
2022/07/07 07:25:10;;;;;;;2.23;1.53;;;23.10;73.20;;;;;;6162410;23;20382;-75
2022/07/07 07:27:37;;;;;;;1.37;1.27;;;23.10;73.30;;;;;;6214556;23;20403;-75
2022/07/07 07:30:06;;;;;;;2.07;1.70;;;23.10;73.40;;;;;;6215947;23;20480;-75
2022/07/07 07:32:33;;;;;;;1.53;1.40;;;23.10;73.20;;;;;;6164521;23;20383;-75
2022/07/07 07:35:01;;;;;;;2.33;1.33;;;23.10;73.10;;;;;;6215553;23;20413;-75
2022/07/07 07:37:29;;;;;;;1.60;1.50;;;23.10;73.40;;;;;;6164704;23;20387;-75
2022/07/07 07:39:57;;;;;;;2.40;1.50;;;23.10;74.10;;;;;;6188760;23;20795;-76
2022/07/07 07:42:23;;;;;;;2.10;1.40;;;23.10;73.60;;;;;;6189360;23;20371;-73
2022/07/07 07:47:38;;;;;;;2.43;1.43;;;23.10;73.80;;;;;;6188412;23;20424;-73
2022/07/07 07:50:05;;;;;;;1.93;1.57;;;23.10;73.50;;;;;;6213785;23;20411;-74
2022/07/07 07:52:31;;;;;;;1.87;1.47;;;23.10;73.70;;;;;;6215425;23;20427;-74
2022/07/07 07:55:00;;;;;;;1.97;1.60;;;23.10;73.50;;;;;;6215426;23;20374;-74
2022/07/07 07:57:26;;;;;;;2.27;1.43;;;23.10;73.70;;;;;;6188878;23;20379;-74
2022/07/07 07:59:57;;;;;;;2.60;1.60;;;23.10;73.60;;;;;;6188525;23;20406;-74
2022/07/07 08:02:28;;;;;;;3.53;2.00;;;23.10;73.40;;;;;;6188914;23;20403;-74
2022/07/07 08:04:57;;;;;;;2.40;1.57;;;23.10;73.60;;;;;;6164852;23;20402;-74
2022/07/07 08:07:25;;;;;;;2.07;1.73;;;23.10;73.70;;;;;;6189091;23;20409;-74
2022/07/07 08:09:54;;;;;;;3.43;1.50;;;23.10;73.30;;;;;;6164483;23;20429;-74
2022/07/07 08:12:20;;;;;;;2.23;1.60;;;23.10;73.50;;;;;;6189170;23;20359;-74
2022/07/07 08:14:49;;;;;;;2.17;1.60;;;23.10;73.60;;;;;;6215204;23;20438;-74
2022/07/07 08:17:15;;;;;;;3.57;1.77;;;23.10;73.70;;;;;;6215009;23;20388;-74
2022/07/07 08:19:41;;;;;;;2.50;1.40;;;23.10;73.50;;;;;;6139275;23;20761;-74
2022/07/07 08:22:10;;;;;;;3.10;1.70;;;23.10;73.40;;;;;;6189140;23;20382;-74
2022/07/07 08:24:39;;;;;;;2.00;1.60;;;23.10;72.80;;;;;;6213470;23;20916;-74
2022/07/07 08:27:08;;;;;;;1.80;1.70;;;23.00;72.90;;;;;;6214941;23;20403;-74
2022/07/07 08:29:38;;;;;;;3.70;1.70;;;23.00;73.10;;;;;;6214955;23;20521;-74
2022/07/07 08:32:06;;;;;;;1.60;1.40;;;23.00;73.50;;;;;;6215020;23;20372;-74
2022/07/07 08:34:32;;;;;;;1.83;1.47;;;23.00;73.50;;;;;;6139611;23;20770;-74
2022/07/07 08:36:58;;;;;;;1.53;1.37;;;23.00;73.40;;;;;;6188550;23;20403;-74
2022/07/07 08:39:24;;;;;;;4.07;1.80;;;23.00;73.40;;;;;;6214302;23;20406;-73
2022/07/07 08:41:50;;;;;;;2.63;1.43;;;23.00;73.50;;;;;;6215152;23;20385;-74
2022/07/07 08:44:18;;;;;;;2.80;1.43;;;23.00;73.70;;;;;;6215024;23;20585;-74
2022/07/07 08:46:44;;;;;;;2.20;1.37;;;23.00;73.70;;;;;;6188443;23;20387;-73
2022/07/07 08:49:12;;;;;;;3.50;1.43;;;23.00;73.70;;;;;;6163350;23;20922;-74
2022/07/07 08:51:41;;;;;;;4.23;1.60;;;23.00;73.90;;;;;;6215531;23;20426;-74
2022/07/07 08:54:11;;;;;;;2.30;1.30;;;23.00;73.80;;;;;;6214957;23;20395;-74
2022/07/07 08:56:40;;;;;;;2.57;1.20;;;23.00;73.90;;;;;;6215452;23;20368;-73
2022/07/07 08:59:11;;;;;;;2.30;1.00;;;23.00;73.60;;;;;;6188603;23;20402;-74
2022/07/07 09:01:37;;;;;;;3.13;1.53;;;23.00;73.30;;;;;;6215091;23;20462;-74
2022/07/07 09:04:04;;;;;;;3.27;1.47;;;23.00;73.40;;;;;;6164273;23;20399;-74
2022/07/07 09:06:31;;;;;;;2.63;1.57;;;23.00;73.40;;;;;;6213107;23;20401;-74
2022/07/07 09:09:03;;;;;;;3.53;1.43;;;23.00;73.40;;;;;;6202871;23;20433;-74
2022/07/07 09:11:33;;;;;;;5.50;1.90;;;23.00;73.20;;;;;;6215298;23;20379;-74
2022/07/07 09:14:15;;;;;;;4.30;1.37;;;23.00;73.20;;;;;;6163893;23;20842;-74
2022/07/07 09:16:44;;;;;;;2.37;1.60;;;23.00;73.10;;;;;;6164752;23;20899;-74
2022/07/07 09:19:19;;;;;;;3.93;1.63;;;23.00;72.90;;;;;;6188899;23;20505;-74
2022/07/07 09:21:46;;;;;;;1.87;1.50;;;23.00;72.90;;;;;;6215164;23;20441;-74
2022/07/07 09:24:15;;;;;;;3.20;2.10;;;23.00;73.20;;;;;;6164059;23;20379;-74
2022/07/07 09:26:56;;;;;;;2.87;1.60;;;23.00;73.00;;;;;;6163990;23;20472;-74
2022/07/07 09:29:23;;;;;;;3.10;1.33;;;23.00;72.90;;;;;;6163139;23;20425;-74
2022/07/07 09:32:04;;;;;;;1.77;1.33;;;22.90;72.60;;;;;;6215115;23;20744;-74
2022/07/07 09:34:37;;;;;;;2.73;1.80;;;23.00;72.60;;;;;;6188531;23;20379;-74
2022/07/07 09:39:54;;;;;;;3.90;1.60;;;22.90;72.60;;;;;;6188450;23;20874;-74
2022/07/07 09:42:27;;;;;;;2.70;1.50;;;22.90;72.70;;;;;;6162639;23;20415;-74
2022/07/07 09:44:56;;;;;;;3.37;2.50;;;22.90;72.40;;;;;;6213476;23;20399;-74
2022/07/07 09:47:28;;;;;;;3.10;1.67;;;22.90;72.40;;;;;;6214462;23;20445;-74
2022/07/07 09:50:07;;;;;;;2.20;1.40;;;22.90;72.30;;;;;;6138803;23;20437;-74
2022/07/07 09:52:36;;;;;;;3.70;1.40;;;22.90;72.40;;;;;;6214568;23;20720;-74
2022/07/07 09:55:06;;;;;;;3.10;1.70;;;22.90;72.30;;;;;;6188654;23;20796;-74
2022/07/07 09:57:35;;;;;;;3.67;1.53;;;22.90;72.30;;;;;;6188918;23;20853;-74
2022/07/07 10:00:01;;;;;;;2.13;1.33;;;22.90;72.50;;;;;;6138926;23;20411;-74
2022/07/07 10:02:38;;;;;;;2.83;1.70;;;22.90;72.60;;;;;;6188867;23;20410;-74
2022/07/07 10:05:07;;;;;;;2.07;1.20;;;22.90;72.40;;;;;;6188288;23;20744;-73
2022/07/07 10:07:34;;;;;;;2.20;1.20;;;23.00;72.50;;;;;;6214813;23;20467;-73
2022/07/07 10:10:05;;;;;;;1.93;1.00;;;23.00;72.60;;;;;;6214604;23;20446;-74
2022/07/07 10:12:32;;;;;;;1.47;1.03;;;22.90;72.30;;;;;;6188055;23;20450;-74
2022/07/07 10:15:01;;;;;;;2.30;1.30;;;22.90;71.90;;;;;;6214912;23;20364;-74
2022/07/07 10:17:28;;;;;;;2.43;1.33;;;23.00;72.10;;;;;;6187916;23;20422;-73
2022/07/07 10:19:55;;;;;;;4.37;1.20;;;23.00;72.30;;;;;;6188416;23;20403;-73
2022/07/07 10:22:27;;;;;;;1.80;1.10;;;23.00;72.00;;;;;;6188483;23;20437;-73
2022/07/07 10:24:58;;;;;;;3.13;1.37;;;23.00;72.00;;;;;;6214867;23;20449;-73
2022/07/07 10:27:26;;;;;;;1.57;1.20;;;23.00;72.00;;;;;;6214774;23;20402;-73
2022/07/07 10:30:02;;;;;;;2.20;1.27;;;23.00;72.00;;;;;;6187684;23;20464;-72
2022/07/07 10:32:50;;;;;;;1.87;1.53;;;23.00;72.00;;;;;;6162967;23;20391;-73
2022/07/07 10:35:18;;;;;;;1.67;1.40;;;23.00;72.10;;;;;;6213219;23;20434;-73
2022/07/07 10:37:44;;;;;;;2.60;1.33;;;23.00;72.20;;;;;;6214383;23;20359;-73
2022/07/07 10:40:32;;;;;;;1.83;1.50;;;22.90;72.20;;;;;;6162825;23;20403;-74
2022/07/07 10:43:10;;;;;;;1.63;1.37;;;23.00;72.30;;;;;;6188164;23;20271;-74
2022/07/07 10:45:48;;;;;;;2.30;1.50;;;22.90;72.00;;;;;;6163111;23;20493;-74
2022/07/07 10:48:47;;;;;;;2.20;1.60;;;22.90;72.00;;;;;;6187556;23;20422;-74
2022/07/07 10:51:22;;;;;;;2.10;1.50;;;22.90;71.90;;;;;;6188024;23;20439;-74
2022/07/07 10:54:06;;;;;;;3.00;2.23;;;22.90;71.90;;;;;;6187922;23;20737;-74
2022/07/07 10:56:53;;;;;;;2.93;1.50;;;22.90;72.00;;;;;;6187826;23;20893;-74
2022/07/07 10:59:24;;;;;;;1.77;1.30;;;22.90;72.10;;;;;;6187887;23;20517;-74
2022/07/07 11:02:01;;;;;;;2.40;1.40;;;22.90;72.20;;;;;;6214913;23;20421;-74
2022/07/07 11:04:46;;;;;;;2.17;1.40;;;22.90;72.10;;;;;;6165539;23;20359;-74
2022/07/07 11:07:14;;;;;;;1.83;1.20;;;22.90;72.00;;;;;;6140755;23;20410;-74
2022/07/07 11:10:04;;;;;;;3.00;1.40;;;22.90;71.90;;;;;;6216399;23;20442;-74
2022/07/07 11:12:40;;;;;;;3.10;1.60;;;22.90;71.80;;;;;;6164885;23;20422;-74
2022/07/07 11:15:15;;;;;;;4.50;1.70;;;22.90;71.80;;;;;;6189910;23;20369;-74
2022/07/07 11:17:43;;;;;;;3.03;1.60;;;22.90;71.90;;;;;;6139778;23;20487;-74
2022/07/07 11:20:18;;;;;;;3.40;1.47;;;22.90;71.90;;;;;;6214693;23;20410;-74
2022/07/07 11:22:45;;;;;;;2.90;1.30;;;22.90;72.20;;;;;;6189838;23;20392;-74
2022/07/07 11:25:13;;;;;;;1.60;1.50;;;22.90;72.40;;;;;;6214967;23;20383;-74
2022/07/07 11:27:42;;;;;;;2.93;1.70;;;22.90;72.40;;;;;;6216544;23;20371;-74
2022/07/07 11:30:08;;;;;;;2.10;1.30;;;22.90;72.50;;;;;;6164505;23;20449;-74
2022/07/07 11:32:39;;;;;;;3.40;1.40;;;22.90;73.00;;;;;;6164921;23;20387;-74
2022/07/07 11:35:07;;;;;;;4.00;1.73;;;22.90;73.00;;;;;;6189767;23;20407;-74
2022/07/07 11:37:40;;;;;;;1.60;1.40;;;22.90;73.20;;;;;;6190390;23;20371;-74
2022/07/07 11:40:15;;;;;;;3.07;1.50;;;22.90;73.30;;;;;;6216261;23;20398;-73
2022/07/07 11:42:42;;;;;;;2.40;1.63;;;22.90;73.20;;;;;;6216196;23;20704;-73
2022/07/07 11:45:21;;;;;;;2.13;1.67;;;22.90;73.10;;;;;;6164804;23;20537;-73
2022/07/07 11:47:54;;;;;;;3.80;2.10;;;22.90;73.30;;;;;;6216103;23;20375;-74
2022/07/07 11:50:22;;;;;;;2.07;1.60;;;22.90;73.10;;;;;;6214268;23;20419;-74
2022/07/07 11:53:01;;;;;;;3.40;1.70;;;22.90;73.10;;;;;;6216408;23;20362;-74
2022/07/07 11:55:35;;;;;;;2.90;1.60;;;22.90;73.30;;;;;;6216348;23;20413;-74
2022/07/07 11:58:29;;;;;;;2.33;1.60;;;22.90;73.10;;;;;;6152375;23;20421;-74
2022/07/07 12:00:58;;;;;;;2.57;1.70;;;22.90;72.60;;;;;;6214617;23;20474;-74
2022/07/07 12:03:35;;;;;;;3.97;1.80;;;22.80;72.30;;;;;;6164994;23;20461;-74
2022/07/07 12:06:02;;;;;;;2.60;1.50;;;22.90;72.40;;;;;;6189170;23;20426;-74
2022/07/07 12:08:34;;;;;;;2.90;1.80;;;22.90;72.50;;;;;;6163891;23;20430;-74
2022/07/07 12:11:01;;;;;;;2.30;1.60;;;22.90;72.60;;;;;;6215613;23;20877;-74
2022/07/07 12:13:29;;;;;;;2.07;1.50;;;22.90;72.40;;;;;;6189400;23;20443;-74
2022/07/07 12:16:03;;;;;;;2.53;1.50;;;22.90;72.10;;;;;;6214608;23;20700;-74
2022/07/07 12:18:43;;;;;;;1.90;1.50;;;22.90;72.40;;;;;;6163799;23;20415;-73
2022/07/07 12:21:15;;;;;;;2.30;1.50;;;22.80;72.20;;;;;;6189689;23;20414;-74
2022/07/07 12:23:45;;;;;;;2.37;1.67;;;22.80;72.30;;;;;;6166158;23;20364;-76
2022/07/07 12:26:11;;;;;;;2.50;1.40;;;22.90;72.70;;;;;;6189793;23;20371;-73
2022/07/07 12:28:40;;;;;;;2.20;1.40;;;22.80;72.80;;;;;;6215946;23;20430;-74
2022/07/07 12:31:07;;;;;;;2.23;1.20;;;22.80;72.40;;;;;;6164604;23;20387;-74
2022/07/07 12:33:41;;;;;;;1.93;1.20;;;22.80;72.50;;;;;;6216160;23;20368;-74
2022/07/07 12:36:21;;;;;;;1.90;1.37;;;22.80;72.70;;;;;;6188703;23;20375;31
2022/07/07 12:38:48;;;;;;;1.57;1.43;;;22.80;72.70;;;;;;6105599;23;20416;-72
2022/07/07 12:41:27;;;;;;;2.60;1.60;;;22.80;72.50;;;;;;6178034;23;20424;-72
2022/07/07 12:44:10;;;;;;;1.83;1.20;;;22.80;72.10;;;;;;6155391;23;20372;-72
2022/07/07 12:46:41;;;;;;;1.40;1.30;;;22.90;72.10;;;;;;6153919;23;20378;-72
2022/07/07 12:49:08;;;;;;;1.30;1.20;;;22.80;71.90;;;;;;6177976;23;20985;-72
2022/07/07 12:51:35;;;;;;;2.30;1.40;;;22.90;72.00;;;;;;6128948;23;20428;-72
2022/07/07 12:54:01;;;;;;;4.63;1.43;;;22.90;71.80;;;;;;6129225;23;20374;-72
2022/07/07 12:56:35;;;;;;;2.00;1.23;;;22.80;71.60;;;;;;6129395;23;20840;-72
2022/07/07 12:59:19;;;;;;;2.33;1.17;;;22.80;71.60;;;;;;6152846;23;20434;-72
2022/07/07 13:01:53;;;;;;;1.30;1.10;;;22.80;71.60;;;;;;6177782;23;20770;-72
2022/07/07 13:04:27;;;;;;;1.80;1.00;;;22.90;72.10;;;;;;6152844;23;20412;-72
2022/07/07 13:06:56;;;;;;;2.40;1.50;;;22.80;72.00;;;;;;6154723;23;20377;-72